createdAt,value
2022-09-29T00:00:22.628Z,20.58
2022-09-29T00:02:49.590Z,22.10
2022-09-29T00:05:16.553Z,22.33
2022-09-29T00:07:43.439Z,21.75
2022-09-29T00:10:10.288Z,21.40
2022-09-29T00:12:37.174Z,22.85
2022-09-29T00:15:05.156Z,24.05
2022-09-29T00:17:31.934Z,25.55
2022-09-29T00:19:58.865Z,25.95
2022-09-29T00:22:25.771Z,27.02
2022-09-29T00:24:52.607Z,27.70
2022-09-29T00:27:19.632Z,29.98
2022-09-29T00:29:46.731Z,31.73
2022-09-29T00:32:13.713Z,31.13
2022-09-29T00:34:40.453Z,30.98
2022-09-29T00:37:07.377Z,32.45
2022-09-29T00:39:34.117Z,33.25
2022-09-29T00:42:00.875Z,33.00
2022-09-29T00:45:05.318Z,35.70
2022-09-29T00:47:36.731Z,33.15
2022-09-29T00:50:12.478Z,32.78
2022-09-29T00:52:46.795Z,33.13
2022-09-29T00:55:20.969Z,32.60
2022-09-29T00:57:54.684Z,23.47
2022-09-29T01:00:21.671Z,31.63
2022-09-29T01:03:07.952Z,31.42
2022-09-29T01:05:43.315Z,29.88
2022-09-29T01:08:28.852Z,31.38
2022-09-29T01:10:57.305Z,30.00
2022-09-29T01:13:24.906Z,30.50
2022-09-29T01:15:51.769Z,30.27
2022-09-29T01:18:19.019Z,31.45
2022-09-29T01:20:57.061Z,31.40
2022-09-29T01:24:05.516Z,31.08
2022-09-29T01:27:40.072Z,27.33
2022-09-29T01:30:29.189Z,29.58
2022-09-29T01:33:33.233Z,28.88
2022-09-29T01:36:32.340Z,27.27
2022-09-29T01:39:27.389Z,24.20
2022-09-29T01:42:07.562Z,20.30
2022-09-29T01:44:40.368Z,27.45
2022-09-29T01:47:15.030Z,27.52
2022-09-29T01:49:45.821Z,27.50
2022-09-29T01:52:19.962Z,27.13
2022-09-29T01:55:06.790Z,20.40
2022-09-29T01:57:52.406Z,25.10
2022-09-29T02:00:21.406Z,22.05
2022-09-29T02:03:08.440Z,22.48
2022-09-29T02:05:42.071Z,21.50
2022-09-29T02:08:16.919Z,22.17
2022-09-29T02:11:04.091Z,20.25
2022-09-29T02:13:36.925Z,19.60
2022-09-29T02:16:05.852Z,19.80
2022-09-29T02:18:40.651Z,19.77
2022-09-29T02:21:08.878Z,22.63
2022-09-29T02:23:36.067Z,21.95
2022-09-29T02:26:03.781Z,23.23
2022-09-29T02:28:30.571Z,24.08
2022-09-29T02:30:57.825Z,25.65
2022-09-29T02:33:25.878Z,21.98
2022-09-29T02:36:00.047Z,24.63
2022-09-29T02:38:57.348Z,15.73
2022-09-29T02:41:35.270Z,20.95
2022-09-29T02:44:04.792Z,21.52
2022-09-29T02:46:46.968Z,20.38
2022-09-29T02:49:22.820Z,20.83
2022-09-29T02:51:56.882Z,17.63
2022-09-29T02:55:01.379Z,19.48
2022-09-29T02:57:50.973Z,19.75
2022-09-29T03:00:19.376Z,19.50
2022-09-29T03:02:46.288Z,19.13
2022-09-29T03:05:16.622Z,21.73
2022-09-29T03:07:43.810Z,18.63
2022-09-29T03:10:12.824Z,19.77
2022-09-29T03:12:39.903Z,18.80
2022-09-29T03:15:08.534Z,19.70
2022-09-29T03:17:36.128Z,18.90
2022-09-29T03:20:02.927Z,19.63
2022-09-29T03:22:29.784Z,21.05
2022-09-29T03:24:56.622Z,21.13
2022-09-29T03:27:23.439Z,23.73
2022-09-29T03:29:50.523Z,27.63
2022-09-29T03:32:18.630Z,26.48
2022-09-29T03:34:45.576Z,29.75
2022-09-29T03:37:12.483Z,31.05
2022-09-29T03:39:39.422Z,33.80
2022-09-29T03:42:06.229Z,33.55
2022-09-29T03:44:33.127Z,33.92
2022-09-29T03:47:00.757Z,36.55
2022-09-29T03:49:27.563Z,35.45
2022-09-29T03:51:54.415Z,36.30
2022-09-29T03:54:21.313Z,36.22
2022-09-29T03:56:48.088Z,35.15
2022-09-29T03:59:15.763Z,35.25
2022-09-29T04:01:42.652Z,33.65
2022-09-29T04:04:10.621Z,33.90
2022-09-29T04:06:37.406Z,34.33
2022-09-29T04:09:04.643Z,33.33
2022-09-29T04:11:31.562Z,33.33
2022-09-29T04:13:58.430Z,36.35
2022-09-29T04:16:25.274Z,36.42
2022-09-29T04:18:52.107Z,37.40
2022-09-29T04:21:19.037Z,37.30
2022-09-29T04:23:46.886Z,34.58
2022-09-29T04:26:13.694Z,34.67
2022-09-29T04:28:40.733Z,32.85
2022-09-29T04:31:07.858Z,32.40
2022-09-29T04:33:35.312Z,33.75
2022-09-29T04:36:02.379Z,31.55
2022-09-29T04:38:29.600Z,30.88
2022-09-29T04:40:56.477Z,29.38
2022-09-29T04:43:23.588Z,28.10
2022-09-29T04:45:50.478Z,28.05
2022-09-29T04:48:17.256Z,26.63
2022-09-29T04:50:44.117Z,26.85
2022-09-29T04:53:12.076Z,24.40
2022-09-29T04:55:39.340Z,24.70
2022-09-29T04:58:06.305Z,23.75
2022-09-29T05:00:33.646Z,24.63
2022-09-29T05:03:00.931Z,24.17
2022-09-29T05:05:28.059Z,25.27
2022-09-29T05:07:54.989Z,25.35
2022-09-29T05:10:22.054Z,26.85
2022-09-29T05:12:50.276Z,27.73
2022-09-29T05:15:23.418Z,26.52
2022-09-29T05:17:52.001Z,25.40
2022-09-29T05:20:18.867Z,23.92
2022-09-29T05:22:45.637Z,25.05
2022-09-29T05:25:12.457Z,27.90
2022-09-29T05:27:39.313Z,26.40
2022-09-29T05:30:06.770Z,28.80
2022-09-29T05:32:33.525Z,28.30
2022-09-29T05:35:01.020Z,28.83
2022-09-29T05:37:27.943Z,26.63
2022-09-29T05:39:54.950Z,27.38
2022-09-29T05:42:21.824Z,28.60
2022-09-29T05:44:48.728Z,29.13
2022-09-29T05:47:15.777Z,25.45
2022-09-29T05:49:42.608Z,23.88
2022-09-29T05:52:09.332Z,23.85
2022-09-29T05:54:36.100Z,26.55
2022-09-29T05:57:02.940Z,25.83
2022-09-29T05:59:29.847Z,24.98
2022-09-29T06:01:57.211Z,25.63
2022-09-29T06:04:24.135Z,27.85
2022-09-29T06:06:50.927Z,27.67
2022-09-29T06:09:18.316Z,28.88
2022-09-29T06:11:45.065Z,30.20
2022-09-29T06:14:12.017Z,31.15
2022-09-29T06:16:39.062Z,31.38
2022-09-29T06:19:05.954Z,32.60
2022-09-29T06:21:35.860Z,33.33
2022-09-29T06:24:02.909Z,33.63
2022-09-29T06:26:30.432Z,37.70
2022-09-29T06:28:58.691Z,37.05
2022-09-29T06:31:28.869Z,40.15
2022-09-29T06:34:01.121Z,37.88
2022-09-29T06:36:57.593Z,35.28
2022-09-29T06:39:24.901Z,32.78
2022-09-29T06:41:58.261Z,32.08
2022-09-29T06:44:28.682Z,29.33
2022-09-29T06:47:07.405Z,28.50
2022-09-29T06:49:34.522Z,25.90
2022-09-29T06:54:45.774Z,22.77
2022-09-29T06:57:13.906Z,21.70
2022-09-29T06:59:41.281Z,21.23
2022-09-29T07:02:19.263Z,21.05
2022-09-29T07:04:49.016Z,20.27
2022-09-29T07:07:19.966Z,19.55
2022-09-29T07:09:46.940Z,20.00
2022-09-29T07:12:14.588Z,19.30
2022-09-29T07:14:41.678Z,19.20
2022-09-29T07:17:09.380Z,17.95
2022-09-29T07:19:36.500Z,19.27
2022-09-29T07:22:04.738Z,19.52
2022-09-29T07:24:31.881Z,18.80
2022-09-29T07:26:58.909Z,18.33
2022-09-29T07:29:26.281Z,18.38
2022-09-29T07:31:55.656Z,18.65
2022-09-29T07:34:22.770Z,18.80
2022-09-29T07:36:50.043Z,19.13
2022-09-29T07:39:18.102Z,18.67
2022-09-29T07:41:45.569Z,17.67
2022-09-29T07:44:12.749Z,18.77
2022-09-29T07:46:40.490Z,18.70
2022-09-29T07:49:07.642Z,18.40
2022-09-29T07:51:34.883Z,17.42
2022-09-29T07:54:04.172Z,17.23
2022-09-29T07:56:31.370Z,18.65
2022-09-29T07:59:02.610Z,17.83
2022-09-29T08:01:33.643Z,17.58
2022-09-29T08:04:02.232Z,17.52
2022-09-29T08:06:32.637Z,17.55
2022-09-29T08:09:05.435Z,17.63
2022-09-29T08:11:34.142Z,18.00
2022-09-29T08:14:01.680Z,17.38
2022-09-29T08:16:28.808Z,17.92
2022-09-29T08:18:55.899Z,17.55
2022-09-29T08:21:25.365Z,17.02
2022-09-29T08:23:55.300Z,17.45
2022-09-29T08:26:39.820Z,17.73
2022-09-29T08:29:16.811Z,16.70
2022-09-29T08:31:47.272Z,16.08
2022-09-29T08:34:18.698Z,15.27
2022-09-29T08:36:46.166Z,15.23
2022-09-29T08:39:16.182Z,15.35
2022-09-29T08:42:12.610Z,15.05
2022-09-29T08:44:48.031Z,15.10
2022-09-29T08:47:20.421Z,14.80
2022-09-29T08:49:51.521Z,15.30
2022-09-29T08:52:44.930Z,13.90
2022-09-29T08:55:21.921Z,14.07
2022-09-29T08:57:55.307Z,13.77
2022-09-29T09:00:30.671Z,13.43
2022-09-29T09:03:39.681Z,13.98
2022-09-29T09:06:15.755Z,12.57
2022-09-29T09:08:56.716Z,13.45
2022-09-29T09:11:43.006Z,13.93
2022-09-29T09:14:52.272Z,13.05
2022-09-29T09:17:31.481Z,13.32
2022-09-29T09:20:04.987Z,12.98
2022-09-29T09:22:56.235Z,14.77
2022-09-29T09:25:31.353Z,13.55
2022-09-29T09:28:23.036Z,13.15
2022-09-29T09:31:00.727Z,14.90
2022-09-29T09:33:59.330Z,15.07
2022-09-29T09:36:34.082Z,13.18
2022-09-29T09:39:04.944Z,14.32
2022-09-29T09:41:36.482Z,14.02
2022-09-29T09:44:11.533Z,13.13
2022-09-29T09:46:47.673Z,12.90
2022-09-29T09:49:48.356Z,13.00
2022-09-29T09:52:25.201Z,10.93
2022-09-29T09:55:08.119Z,11.90
2022-09-29T09:57:50.421Z,11.68
2022-09-29T10:00:26.610Z,11.32
2022-09-29T10:02:58.815Z,10.60
2022-09-29T10:05:37.279Z,9.00
2022-09-29T10:08:14.024Z,10.60
2022-09-29T10:10:51.323Z,10.15
2022-09-29T10:13:29.807Z,10.18
2022-09-29T10:16:17.275Z,9.63
2022-09-29T10:18:48.585Z,10.65
2022-09-29T10:21:44.146Z,10.05
2022-09-29T10:24:28.328Z,10.20
2022-09-29T10:26:58.711Z,8.85
2022-09-29T10:29:49.430Z,7.97
2022-09-29T10:32:36.542Z,9.02
2022-09-29T10:35:20.035Z,9.90
2022-09-29T10:37:50.926Z,8.25
2022-09-29T10:40:23.923Z,8.10
2022-09-29T10:42:51.788Z,8.63
2022-09-29T10:45:23.016Z,8.75
2022-09-29T10:47:59.116Z,7.53
2022-09-29T10:50:33.369Z,7.70
2022-09-29T10:53:17.031Z,8.13
2022-09-29T10:55:56.424Z,7.65
2022-09-29T10:58:52.595Z,7.93
2022-09-29T11:01:25.987Z,7.72
2022-09-29T11:04:15.903Z,8.63
2022-09-29T11:06:44.275Z,8.32
2022-09-29T11:09:15.936Z,6.22
2022-09-29T11:11:49.135Z,5.57
2022-09-29T11:14:29.085Z,8.05
2022-09-29T11:17:00.342Z,7.40
2022-09-29T11:19:30.340Z,6.85
2022-09-29T11:22:39.901Z,5.72
2022-09-29T11:25:40.991Z,6.78
2022-09-29T11:28:32.194Z,6.88
2022-09-29T11:31:23.718Z,6.03
2022-09-29T11:34:20.616Z,6.65
2022-09-29T11:36:48.559Z,6.90
2022-09-29T11:39:34.902Z,4.55
2022-09-29T11:42:18.879Z,4.65
2022-09-29T11:45:01.463Z,5.28
2022-09-29T11:48:10.923Z,5.07
2022-09-29T11:50:37.672Z,5.18
2022-09-29T11:53:19.043Z,3.92
2022-09-29T11:55:54.754Z,4.03
2022-09-29T11:58:41.357Z,4.47
2022-09-29T12:01:21.666Z,4.03
2022-09-29T12:04:10.139Z,3.80
2022-09-29T12:07:05.767Z,3.72
2022-09-29T12:09:50.818Z,4.40
2022-09-29T12:12:33.810Z,5.13
2022-09-29T12:15:27.028Z,4.78
2022-09-29T12:18:01.034Z,3.92
2022-09-29T12:20:32.330Z,4.72
2022-09-29T12:23:05.714Z,5.25
2022-09-29T12:25:38.169Z,5.18
2022-09-29T12:28:16.301Z,5.53
2022-09-29T12:30:54.963Z,4.70
2022-09-29T12:33:27.859Z,4.15
2022-09-29T12:36:39.232Z,4.93
2022-09-29T12:39:15.025Z,4.70
2022-09-29T12:41:48.419Z,4.72
2022-09-29T12:44:35.134Z,5.15
2022-09-29T12:47:10.056Z,5.65
2022-09-29T12:50:00.141Z,5.03
2022-09-29T12:52:35.388Z,4.95
2022-09-29T12:55:07.863Z,5.38
2022-09-29T12:57:42.516Z,4.10
2022-09-29T13:00:13.803Z,3.90
2022-09-29T13:03:05.461Z,3.65
2022-09-29T13:06:26.874Z,3.63
2022-09-29T13:09:19.402Z,2.95
2022-09-29T13:12:04.941Z,2.42
2022-09-29T13:15:02.963Z,2.55
2022-09-29T13:17:59.074Z,3.00
2022-09-29T13:20:46.875Z,2.90
2022-09-29T13:23:19.450Z,3.40
2022-09-29T13:26:26.469Z,3.22
2022-09-29T13:29:03.120Z,2.78
2022-09-29T13:31:35.944Z,2.88
2022-09-29T13:34:04.341Z,3.65
2022-09-29T13:36:44.192Z,3.10
2022-09-29T13:39:23.026Z,2.80
2022-09-29T13:41:55.936Z,3.03
2022-09-29T13:44:28.698Z,2.50
2022-09-29T13:46:57.189Z,2.97
2022-09-29T13:49:28.269Z,2.33
2022-09-29T13:52:11.194Z,1.80
2022-09-29T13:54:42.884Z,1.80
2022-09-29T13:57:12.652Z,2.00
2022-09-29T13:59:41.758Z,2.60
2022-09-29T14:02:29.570Z,1.90
2022-09-29T14:04:57.473Z,2.00
2022-09-29T14:07:47.517Z,2.33
2022-09-29T14:10:32.559Z,2.20
2022-09-29T14:13:08.519Z,1.83
2022-09-29T14:15:46.582Z,1.75
2022-09-29T14:18:29.051Z,1.85
2022-09-29T14:21:03.304Z,1.63
2022-09-29T14:23:49.534Z,1.50
2022-09-29T14:26:42.528Z,1.58
2022-09-29T14:29:30.123Z,2.20
2022-09-29T14:31:59.476Z,1.52
2022-09-29T14:34:33.938Z,1.90
2022-09-29T14:37:01.358Z,1.65
2022-09-29T14:39:29.418Z,1.83
2022-09-29T14:41:56.764Z,1.70
2022-09-29T14:44:52.825Z,2.00
2022-09-29T14:48:05.938Z,1.40
2022-09-29T14:51:18.000Z,1.80
2022-09-29T14:53:58.762Z,1.67
2022-09-29T14:56:59.040Z,1.52
2022-09-29T14:59:45.382Z,2.00
2022-09-29T15:02:22.812Z,1.77
2022-09-29T15:04:50.299Z,1.60
2022-09-29T15:07:22.919Z,1.80
2022-09-29T15:09:56.152Z,1.98
2022-09-29T15:12:28.771Z,2.13
2022-09-29T15:14:58.186Z,1.90
2022-09-29T15:17:39.989Z,1.85
2022-09-29T15:20:23.351Z,1.80
2022-09-29T15:23:02.343Z,1.77
2022-09-29T15:25:35.661Z,1.88
2022-09-29T15:28:10.624Z,1.60
2022-09-29T15:30:38.048Z,1.67
2022-09-29T15:33:27.821Z,2.15
2022-09-29T15:35:59.548Z,1.85
2022-09-29T15:38:32.480Z,1.40
2022-09-29T15:41:13.568Z,2.17
2022-09-29T15:43:54.687Z,2.13
2022-09-29T15:46:32.709Z,2.17
2022-09-29T15:49:21.466Z,1.73
2022-09-29T15:52:00.768Z,1.70
2022-09-29T15:54:34.857Z,1.70
2022-09-29T15:57:21.360Z,1.23
2022-09-29T15:59:51.665Z,1.52
2022-09-29T16:02:41.836Z,1.60
2022-09-29T16:05:15.939Z,1.58
2022-09-29T16:07:58.448Z,1.58
2022-09-29T16:10:32.764Z,2.42
2022-09-29T16:13:08.886Z,1.70
2022-09-29T16:15:37.308Z,2.10
2022-09-29T16:18:11.086Z,2.03
2022-09-29T16:20:38.123Z,2.10
2022-09-29T16:23:36.075Z,1.70
2022-09-29T16:26:10.250Z,1.92
2022-09-29T16:28:40.719Z,2.10
2022-09-29T16:31:20.192Z,1.80
2022-09-29T16:33:56.774Z,2.10
2022-09-29T16:36:28.090Z,1.70
2022-09-29T16:38:56.170Z,2.15
2022-09-29T16:41:35.832Z,1.83
2022-09-29T16:44:16.368Z,2.00
2022-09-29T16:47:01.023Z,1.80
2022-09-29T16:49:33.494Z,1.80
2022-09-29T16:52:11.515Z,1.80
2022-09-29T16:54:44.562Z,1.90
2022-09-29T16:57:34.319Z,1.70
2022-09-29T17:02:36.384Z,2.22
2022-09-29T17:05:05.346Z,2.40
2022-09-29T17:07:32.678Z,2.95
2022-09-29T17:10:01.185Z,2.90
2022-09-29T17:12:29.996Z,2.95
2022-09-29T17:14:57.921Z,3.47
2022-09-29T17:17:27.097Z,4.05
2022-09-29T17:19:58.961Z,3.75
2022-09-29T17:22:31.889Z,4.47
2022-09-29T17:24:59.182Z,4.05
2022-09-29T17:27:46.317Z,4.18
2022-09-29T17:30:22.879Z,3.85
2022-09-29T17:32:53.261Z,4.40
2022-09-29T17:35:27.782Z,4.30
2022-09-29T17:37:56.711Z,4.70
2022-09-29T17:40:36.104Z,5.03
2022-09-29T17:43:03.296Z,4.93
2022-09-29T17:45:32.393Z,5.68
2022-09-29T17:47:59.422Z,6.40
2022-09-29T17:50:30.769Z,5.30
2022-09-29T17:52:59.821Z,5.95
2022-09-29T17:55:27.829Z,6.47
2022-09-29T17:57:55.395Z,6.95
2022-09-29T18:00:28.909Z,7.95
2022-09-29T18:02:59.574Z,14.32
2022-09-29T18:05:29.307Z,9.50
2022-09-29T18:07:57.824Z,8.75
2022-09-29T18:10:31.291Z,8.48
2022-09-29T18:12:58.661Z,8.55
2022-09-29T18:15:26.604Z,9.25
2022-09-29T18:18:02.358Z,9.18
2022-09-29T18:20:32.120Z,7.80
2022-09-29T18:23:00.704Z,7.35
2022-09-29T18:25:30.182Z,7.90
2022-09-29T18:27:58.236Z,8.38
2022-09-29T18:30:39.476Z,7.97
2022-09-29T18:33:13.157Z,7.80
2022-09-29T18:35:44.708Z,8.00
2022-09-29T18:38:12.152Z,7.85
2022-09-29T18:40:40.814Z,7.32
2022-09-29T18:43:11.845Z,7.88
2022-09-29T18:45:42.172Z,7.97
2022-09-29T18:48:13.074Z,7.32
2022-09-29T18:50:49.108Z,8.93
2022-09-29T18:53:19.997Z,9.60
2022-09-29T18:55:49.813Z,10.85
2022-09-29T18:58:21.247Z,10.93
2022-09-29T19:00:51.194Z,10.32
2022-09-29T19:03:19.482Z,10.63
2022-09-29T19:05:48.178Z,10.63
2022-09-29T19:08:17.130Z,9.98
2022-09-29T19:11:00.888Z,10.05
2022-09-29T19:13:31.492Z,10.90
2022-09-29T19:15:59.674Z,11.32
2022-09-29T19:18:27.469Z,11.10
2022-09-29T19:20:59.777Z,10.82
2022-09-29T19:23:27.473Z,9.68
2022-09-29T19:25:55.700Z,9.95
2022-09-29T19:28:27.099Z,10.45
2022-09-29T19:30:56.317Z,10.40
2022-09-29T19:33:24.014Z,11.27
2022-09-29T19:35:55.263Z,10.77
2022-09-29T19:38:22.769Z,10.68
2022-09-29T19:40:51.700Z,10.60
2022-09-29T19:43:21.689Z,10.30
2022-09-29T19:45:50.378Z,10.73
2022-09-29T19:48:20.705Z,9.68
2022-09-29T19:51:14.192Z,11.40
2022-09-29T19:53:43.458Z,10.65
2022-09-29T19:56:14.381Z,11.55
2022-09-29T19:58:41.513Z,11.32
2022-09-29T20:01:10.987Z,11.52
2022-09-29T20:03:38.370Z,10.05
2022-09-29T20:06:10.428Z,11.18
2022-09-29T20:08:37.587Z,10.60
2022-09-29T20:11:09.834Z,10.52
2022-09-29T20:13:37.676Z,10.13
2022-09-29T20:16:06.175Z,9.48
2022-09-29T20:18:37.314Z,9.25
2022-09-29T20:21:12.994Z,9.93
2022-09-29T20:23:40.198Z,10.68
2022-09-29T20:26:09.338Z,11.23
2022-09-29T20:28:40.439Z,11.43
2022-09-29T20:31:08.532Z,12.35
2022-09-29T20:33:39.667Z,12.05
2022-09-29T20:36:07.069Z,12.15
2022-09-29T20:38:39.637Z,12.32
2022-09-29T20:41:08.337Z,12.48
2022-09-29T20:43:35.805Z,12.68
2022-09-29T20:46:06.120Z,12.43
2022-09-29T20:48:39.527Z,11.18
2022-09-29T20:51:15.386Z,11.43
2022-09-29T20:53:57.629Z,10.57
2022-09-29T20:56:32.122Z,10.60
2022-09-29T20:59:02.346Z,9.68
2022-09-29T21:01:31.302Z,11.00
2022-09-29T21:04:06.804Z,9.80
2022-09-29T21:06:36.803Z,10.05
2022-09-29T21:09:06.187Z,11.10
2022-09-29T21:11:38.397Z,10.07
2022-09-29T21:14:08.918Z,10.52
2022-09-29T21:16:41.967Z,9.98
2022-09-29T21:19:13.499Z,11.00
2022-09-29T21:21:41.220Z,10.38
2022-09-29T21:24:09.350Z,12.07
2022-09-29T21:26:36.887Z,13.25
2022-09-29T21:29:04.810Z,12.00
2022-09-29T21:31:34.738Z,12.45
2022-09-29T21:34:07.778Z,12.48
2022-09-29T21:36:37.122Z,13.38
2022-09-29T21:39:08.562Z,13.93
2022-09-29T21:41:41.769Z,13.65
2022-09-29T21:44:16.503Z,13.65
2022-09-29T21:46:44.988Z,14.48
2022-09-29T21:49:16.779Z,12.70
2022-09-29T21:51:47.085Z,13.90
2022-09-29T21:54:16.723Z,12.57
2022-09-29T21:56:46.195Z,13.48
2022-09-29T21:59:15.800Z,14.18
2022-09-29T22:01:43.995Z,14.32
2022-09-29T22:04:11.525Z,16.48
2022-09-29T22:06:39.737Z,16.17
2022-09-29T22:09:09.532Z,16.25
2022-09-29T22:11:39.066Z,16.20
2022-09-29T22:14:06.754Z,16.42
2022-09-29T22:16:35.327Z,17.00
2022-09-29T22:21:52.148Z,17.05
2022-09-29T22:24:19.180Z,16.52
2022-09-29T22:26:46.259Z,16.90
2022-09-29T22:29:13.552Z,16.90
2022-09-29T22:31:40.989Z,15.55
2022-09-29T22:34:08.971Z,15.25
2022-09-29T22:36:36.128Z,14.40
2022-09-29T22:39:05.702Z,15.27
2022-09-29T22:41:33.332Z,14.98
2022-09-29T22:44:01.065Z,15.38
2022-09-29T22:46:30.253Z,14.48
2022-09-29T22:48:57.748Z,12.68
2022-09-29T22:51:24.877Z,11.63
2022-09-29T22:53:52.057Z,12.27
2022-09-29T22:56:22.563Z,13.80
2022-09-29T22:58:49.715Z,12.40
2022-09-29T23:01:18.350Z,12.10
2022-09-29T23:03:46.463Z,11.65
2022-09-29T23:06:15.192Z,11.38
2022-09-29T23:08:42.492Z,11.52
2022-09-29T23:11:17.620Z,12.63
2022-09-29T23:13:45.055Z,13.13
2022-09-29T23:16:13.575Z,14.45
2022-09-29T23:18:44.861Z,15.35
2022-09-29T23:21:21.002Z,15.43
2022-09-29T23:23:52.546Z,16.60
2022-09-29T23:26:19.425Z,17.17
2022-09-29T23:28:46.378Z,13.68
2022-09-29T23:31:14.815Z,13.80
2022-09-29T23:33:41.884Z,12.23
2022-09-29T23:36:12.066Z,11.93
2022-09-29T23:39:06.934Z,12.18
2022-09-29T23:41:34.078Z,11.82
2022-09-29T23:44:04.425Z,12.38
2022-09-29T23:46:36.597Z,11.90
2022-09-29T23:49:09.977Z,12.63
2022-09-29T23:51:40.643Z,12.45
2022-09-29T23:54:09.963Z,12.52
2022-09-29T23:56:37.025Z,11.80
2022-09-29T23:59:05.207Z,11.63
